4IS6 weather

Hattan Farms Airport
Minonk, Illinois, United States

Public forecast

Using degrees Fahrenheit for public forecast. Weather courtesy of forecast.io.

Closest aviation weather report (METAR) to Hattan Farms Airport

Closest report is Marshall County Airport, 13.2 nm (24.4 km) WNW. Retrieved 2019/11/22 01:35 UTC (0 seconds ago):

KC75 220135Z AUTO 30012G21KT 10SM OVC019 05/01 A3003 RMK AO2 T00470014

Closest aviation forecast (TAF) to Hattan Farms Airport

Closest forecast is Central Illinois Regional Airport at Bloomington-Normal, 28.8 nm (53.3 km) SSE. Retrieved 2019-11-22 00:27 UTC (1 hour ago):

TAF KBMI 212324Z 2200/2224 29015G25KT P6SM OVC015 FM220300 32014KT P6SM OVC015 FM220700 33010KT P6SM OVC025 FM220800 33010KT P6SM BKN035 FM221600 01007KT P6SM SKC